Time;durP1;ratioP1;P1;durP2;ratioP2;P2;SDS_P1;SDS_P2;PMS_P1;PMS_P2;Temp;Humidity;BMP_temperature;BMP_pressure;BME280_temperature;BME280_humidity;BME280_pressure;Samples;Min_cycle;Max_cycle;Signal;HPM_P1;HPM_P2
2021/06/18 00:01:22;;;;;;;;;0.00;0.00;;;;;22.77;67.42;100623.91;5121657;27;45423;-61
2021/06/18 00:03:48;;;;;;;;;0.00;0.00;;;;;22.80;66.82;100621.63;5121708;27;46719;-63
2021/06/18 00:06:14;;;;;;;;;0.00;0.00;;;;;22.84;66.60;100616.72;5103124;27;45376;-61
2021/06/18 00:08:39;;;;;;;;;0.00;0.00;;;;;22.86;67.40;100612.81;5114287;27;45289;-62
2021/06/18 00:11:05;;;;;;;;;0.00;0.00;;;;;22.88;66.69;100612.59;5125452;27;45542;-61
2021/06/18 00:13:30;;;;;;;;;0.00;0.00;;;;;22.92;66.85;100617.34;5113502;27;46179;-62
2021/06/18 00:15:56;;;;;;;;;0.00;0.00;;;;;22.96;65.65;100601.72;5122812;27;45267;-62
2021/06/18 00:18:21;;;;;;;;;0.00;0.00;;;;;22.97;66.01;100600.66;5125305;27;45482;-62
2021/06/18 00:20:46;;;;;;;;;0.00;0.00;;;;;22.94;66.64;100590.38;5124936;27;45267;-62
2021/06/18 00:23:12;;;;;;;;;0.00;0.00;;;;;22.93;66.95;100594.06;5125137;27;46224;-62
2021/06/18 00:25:37;;;;;;;;;0.00;0.00;;;;;22.88;67.41;100600.03;5124974;27;45249;-62
2021/06/18 00:28:03;;;;;;;;;0.00;0.00;;;;;22.81;66.95;100595.72;5124497;27;45214;-62
2021/06/18 00:30:28;;;;;;;;;0.00;0.00;;;;;22.76;67.08;100596.28;5124969;27;45332;-62
2021/06/18 00:32:54;;;;;;;;;0.00;0.00;;;;;22.70;68.00;100597.13;5125059;27;45356;-62
2021/06/18 00:35:19;;;;;;;;;0.00;0.00;;;;;22.67;68.05;100598.34;5124603;27;45234;-63
2021/06/18 00:37:45;;;;;;;;;2.25;0.00;;;;;22.69;67.46;100588.25;5106535;27;45481;-63
2021/06/18 00:40:11;;;;;;;;;0.00;0.00;;;;;22.67;68.67;100595.66;5125124;27;45270;-63
2021/06/18 00:42:36;;;;;;;;;0.00;0.00;;;;;22.67;68.69;100597.50;5124599;27;46294;-62
2021/06/18 00:45:02;;;;;;;;;0.00;0.00;;;;;22.70;68.17;100595.28;5106061;27;45266;-63
2021/06/18 00:47:28;;;;;;;;;0.00;0.00;;;;;22.70;68.16;100591.78;5125004;27;45436;-62
2021/06/18 00:49:55;;;;;;;;;3.00;0.00;;;;;22.69;68.16;100593.59;5124906;27;45274;-62
2021/06/18 00:52:21;;;;;;;;;0.00;0.00;;;;;22.70;67.78;100579.22;5124049;27;45589;-63
2021/06/18 00:54:47;;;;;;;;;0.00;0.00;;;;;22.68;69.02;100591.16;5105732;27;45364;-61
2021/06/18 00:57:14;;;;;;;;;0.00;0.00;;;;;22.66;68.10;100590.53;5124817;27;45325;-62
2021/06/18 00:59:39;;;;;;;;;0.00;0.00;;;;;22.59;68.99;100587.84;5124650;27;45468;-62
2021/06/18 01:02:04;;;;;;;;;0.00;0.00;;;;;22.53;68.55;100589.47;5124424;27;45411;-62
2021/06/18 01:04:32;;;;;;;;;0.00;0.00;;;;;22.49;69.40;100592.75;5120273;27;45259;-61
2021/06/18 01:07:05;;;;;;;;;0.00;0.00;;;;;22.50;69.42;100581.00;5115214;27;45368;-62
2021/06/18 01:09:40;;;;;;;;;6.00;6.00;;;;;22.54;68.02;100584.91;5124932;27;45431;-62
2021/06/18 01:12:15;;;;;;;;;0.00;0.00;;;;;22.61;68.13;100577.72;5124382;27;45474;-62
2021/06/18 01:15:08;;;;;;;;;0.00;0.00;;;;;22.63;67.69;100585.56;5116380;27;45229;-62
2021/06/18 01:17:37;;;;;;;;;0.00;0.00;;;;;22.59;68.05;100582.47;5122519;27;46241;-62
2021/06/18 01:20:02;;;;;;;;;0.00;0.00;;;;;22.60;68.18;100583.31;5124120;27;45389;-62
2021/06/18 01:22:30;;;;;;;;;0.00;0.00;;;;;22.57;68.01;100581.84;5124077;27;45495;-62
2021/06/18 01:25:14;;;;;;;;;0.00;0.00;;;;;22.59;67.56;100578.97;5124329;27;45408;-62
2021/06/18 01:27:59;;;;;;;;;0.00;0.00;;;;;22.61;68.20;100584.94;5124374;27;45329;-62
2021/06/18 01:30:27;;;;;;;;;0.00;0.00;;;;;22.59;68.38;100574.44;5123652;27;45318;-62
2021/06/18 01:33:16;;;;;;;;;0.00;0.00;;;;;22.58;67.57;100578.13;5124086;27;45609;-62
2021/06/18 01:35:46;;;;;;;;;0.00;0.00;;;;;22.60;67.75;100559.22;5124031;27;45387;-62
2021/06/18 01:38:12;;;;;;;;;0.00;0.00;;;;;22.58;68.24;100543.34;5124332;27;45451;-62
2021/06/18 01:40:39;;;;;;;;;0.00;0.00;;;;;22.58;67.97;100547.88;5124393;27;45219;-62
2021/06/18 01:43:07;;;;;;;;;0.00;0.00;;;;;22.57;68.20;100552.41;5123694;27;49171;-62
2021/06/18 01:45:36;;;;;;;;;0.00;0.00;;;;;22.55;68.82;100548.25;5123978;27;45362;-62
2021/06/18 01:48:04;;;;;;;;;0.00;0.00;;;;;22.53;68.13;100556.53;5123973;27;45311;-62
2021/06/18 01:50:31;;;;;;;;;0.00;0.00;;;;;22.50;68.56;100539.03;5123957;27;45449;-62
2021/06/18 01:53:16;;;;;;;;;0.00;0.00;;;;;22.45;69.08;100532.63;5123483;27;46688;-62
2021/06/18 01:55:43;;;;;;;;;0.25;0.00;;;;;22.41;68.85;100526.00;5123861;27;45336;-62
2021/06/18 01:58:11;;;;;;;;;0.00;0.00;;;;;22.38;68.44;100524.56;5123387;27;45367;-62
2021/06/18 02:00:40;;;;;;;;;0.00;0.00;;;;;22.35;68.52;100519.59;5123673;27;45357;-61
2021/06/18 02:03:09;;;;;;;;;0.00;0.00;;;;;22.33;68.60;100518.97;5123577;27;47045;-62
2021/06/18 02:05:37;;;;;;;;;0.00;0.00;;;;;22.32;69.04;100510.13;5111616;27;45338;-62
2021/06/18 02:08:08;;;;;;;;;0.00;0.00;;;;;22.32;68.97;100517.34;5122692;27;45237;-62
2021/06/18 02:10:35;;;;;;;;;0.00;0.00;;;;;22.34;68.51;100520.66;5123831;27;45518;-62
2021/06/18 02:13:04;;;;;;;;;0.00;0.00;;;;;22.34;69.11;100519.81;5116873;27;45457;-62
2021/06/18 02:15:31;;;;;;;;;0.00;0.00;;;;;22.34;68.55;100519.81;5116550;27;45175;-62
2021/06/18 02:17:57;;;;;;;;;0.00;0.00;;;;;22.42;67.95;100522.28;5123790;27;45374;-62
2021/06/18 02:20:23;;;;;;;;;0.00;0.00;;;;;22.51;67.98;100534.47;5123453;27;45498;-62
2021/06/18 02:22:50;;;;;;;;;0.00;0.00;;;;;22.62;67.40;100528.53;5104641;27;47287;-62
2021/06/18 02:25:16;;;;;;;;;0.00;0.00;;;;;22.72;66.69;100528.97;5122653;27;45365;-62
2021/06/18 02:27:43;;;;;;;;;0.00;0.00;;;;;22.80;66.25;100530.59;5123297;27;45287;-62
2021/06/18 02:30:12;;;;;;;;;0.00;0.00;;;;;22.87;66.26;100520.75;5123165;27;45205;-62
2021/06/18 02:32:38;;;;;;;;;0.00;0.00;;;;;22.90;66.04;100514.97;5121744;27;45444;-62
2021/06/18 02:35:04;;;;;;;;;0.00;0.00;;;;;22.96;65.75;100507.97;5122696;27;45399;-62
2021/06/18 02:37:30;;;;;;;;;0.00;0.00;;;;;22.96;65.87;100504.44;5123280;27;45283;-62
2021/06/18 02:39:55;;;;;;;;;0.00;0.00;;;;;22.98;66.04;100492.53;5104691;27;45323;-62
2021/06/18 02:42:20;;;;;;;;;0.00;0.00;;;;;22.99;65.78;100490.66;5104421;27;45394;-62
2021/06/18 02:44:46;;;;;;;;;0.00;0.00;;;;;23.00;65.60;100486.94;5122555;27;45372;-62
2021/06/18 02:47:21;;;;;;;;;0.00;0.00;;;;;23.03;65.85;100490.06;5122677;27;45621;-62
2021/06/18 02:50:10;;;;;;;;;0.00;0.00;;;;;23.03;65.49;100490.06;5123055;27;45266;-61
2021/06/18 02:53:10;;;;;;;;;0.00;0.00;;;;;23.03;65.47;100494.59;5071725;27;45453;-63
2021/06/18 02:55:45;;;;;;;;;0.00;0.00;;;;;23.01;65.00;100497.47;5122825;27;45368;-63
2021/06/18 02:58:26;;;;;;;;;0.00;0.00;;;;;22.99;65.37;100494.16;5103997;27;45383;-63
2021/06/18 03:00:54;;;;;;;;;0.00;0.00;;;;;22.99;64.88;100487.97;5122968;27;45307;-61
2021/06/18 03:03:24;;;;;;;;;0.00;0.00;;;;;22.97;65.50;100498.88;5104932;27;47307;-62
2021/06/18 03:05:53;;;;;;;;;0.00;0.00;;;;;22.90;65.93;100501.56;5107666;27;45657;-62
2021/06/18 03:08:21;;;;;;;;;0.00;0.00;;;;;22.85;65.62;100500.53;5102339;27;45306;-62
2021/06/18 03:10:50;;;;;;;;;0.00;0.00;;;;;22.82;65.78;100487.56;5118187;27;45556;-62
2021/06/18 03:13:24;;;;;;;;;0.00;0.00;;;;;22.76;66.68;100488.38;5112910;27;45500;-62
2021/06/18 03:15:49;;;;;;;;;0.00;0.00;;;;;22.68;66.60;100473.38;5103658;27;45629;-61
2021/06/18 03:18:20;;;;;;;;;0.00;0.00;;;;;22.59;67.12;100475.41;5122577;27;45252;-62
2021/06/18 03:20:49;;;;;;;;;0.00;0.00;;;;;22.50;67.47;100477.47;5122196;27;45480;-62
2021/06/18 03:23:19;;;;;;;;;0.00;0.00;;;;;22.52;67.04;100480.72;5122391;27;46533;-62
2021/06/18 03:25:45;;;;;;;;;0.00;0.00;;;;;22.53;67.02;100471.69;5104226;27;45455;-62
2021/06/18 03:28:12;;;;;;;;;0.00;0.00;;;;;22.55;67.36;100484.03;5122511;27;45321;-62
2021/06/18 03:30:38;;;;;;;;;0.00;0.00;;;;;22.56;66.99;100485.69;5122404;27;45237;-62
2021/06/18 03:33:05;;;;;;;;;0.00;0.00;;;;;22.54;67.77;100493.91;5122538;27;46428;-62
2021/06/18 03:35:34;;;;;;;;;0.00;0.00;;;;;22.55;67.97;100508.97;5122324;27;45230;-62
2021/06/18 03:38:00;;;;;;;;;0.00;0.00;;;;;22.58;66.76;100523.78;5122737;27;45304;-63
2021/06/18 03:40:26;;;;;;;;;0.00;0.00;;;;;22.67;67.38;100557.34;5122734;27;45322;-63
2021/06/18 03:42:53;;;;;;;;;0.00;0.00;;;;;22.77;66.84;100563.16;5122377;27;46122;-63
2021/06/18 03:45:22;;;;;;;;;0.00;0.00;;;;;22.88;66.83;100562.53;5125792;27;45238;-63
2021/06/18 03:47:49;;;;;;;;;0.00;0.00;;;;;22.94;66.33;100571.63;5126311;27;45402;-61
2021/06/18 03:50:19;;;;;;;;;0.00;0.00;;;;;23.01;66.22;100553.72;5126378;27;45332;-61
2021/06/18 03:52:45;;;;;;;;;0.00;0.00;;;;;23.08;65.96;100548.38;5124998;27;45483;-61
2021/06/18 03:55:10;;;;;;;;;0.00;0.00;;;;;23.13;66.27;100532.50;5107248;27;45275;-62
2021/06/18 03:57:39;;;;;;;;;0.00;0.00;;;;;23.19;66.06;100545.06;5125933;27;45297;-62
2021/06/18 04:00:07;;;;;;;;;0.00;0.00;;;;;23.22;66.06;100533.09;5125676;27;45587;-62
2021/06/18 04:02:33;;;;;;;;;0.00;0.00;;;;;23.22;66.15;100531.28;5125385;27;46639;-61
2021/06/18 04:05:01;;;;;;;;;0.00;0.00;;;;;23.26;65.61;100527.16;5117364;27;45262;-62
2021/06/18 04:07:29;;;;;;;;;0.00;0.00;;;;;23.27;65.81;100525.28;5105103;27;45361;-61
2021/06/18 04:09:55;;;;;;;;;0.00;0.00;;;;;23.32;66.05;100517.44;5113732;27;45369;-62
2021/06/18 04:12:21;;;;;;;;;0.00;0.00;;;;;23.30;65.43;100522.19;5123551;27;46635;-61
2021/06/18 04:14:46;;;;;;;;;0.00;0.00;;;;;23.24;65.93;100512.28;5113468;27;45321;-62
2021/06/18 04:17:12;;;;;;;;;0.00;0.00;;;;;23.25;66.20;100520.13;5124595;27;45225;-62
2021/06/18 04:19:41;;;;;;;;;0.00;0.00;;;;;23.27;65.62;100511.88;5125649;27;45496;-62
2021/06/18 04:22:11;;;;;;;;;0.00;0.00;;;;;23.30;65.44;100522.19;5109961;27;45658;-62
2021/06/18 04:24:36;;;;;;;;;0.00;0.00;;;;;23.32;65.28;100512.06;5113968;27;45381;-62
2021/06/18 04:27:02;;;;;;;;;0.00;0.00;;;;;23.30;65.70;100506.94;5125400;27;45236;-62
2021/06/18 04:29:27;;;;;;;;;0.00;0.00;;;;;23.27;66.10;100507.34;5125349;27;45379;-62
2021/06/18 04:31:53;;;;;;;;;0.00;0.00;;;;;23.21;66.18;100502.00;5124892;27;45460;-62
2021/06/18 04:34:19;;;;;;;;;0.00;0.00;;;;;23.18;66.18;100510.47;5124882;27;45314;-61
2021/06/18 04:36:45;;;;;;;;;0.00;0.00;;;;;23.16;66.56;100499.94;5125065;27;45302;-62
2021/06/18 04:39:10;;;;;;;;;0.00;0.00;;;;;23.11;66.51;100484.50;5125232;27;45456;-62
2021/06/18 04:41:36;;;;;;;;;0.00;0.00;;;;;23.15;66.86;100492.94;5124941;27;46196;-62
2021/06/18 04:44:02;;;;;;;;;0.00;0.00;;;;;23.13;67.08;100493.16;5124775;27;45273;-63
2021/06/18 04:46:27;;;;;;;;;0.00;0.00;;;;;23.16;67.01;100491.91;5124936;27;45407;-63
2021/06/18 04:48:53;;;;;;;;;0.00;0.00;;;;;23.18;67.05;100491.72;5125217;27;45321;-62
2021/06/18 04:51:19;;;;;;;;;0.00;0.00;;;;;23.21;66.75;100484.06;5124370;27;46458;-62
2021/06/18 04:53:46;;;;;;;;;0.00;0.00;;;;;23.28;66.10;100478.69;5124302;27;45506;-63
2021/06/18 04:56:12;;;;;;;;;0.00;0.00;;;;;23.31;66.66;100467.56;5123423;27;45416;-62
2021/06/18 04:58:39;;;;;;;;;0.00;0.00;;;;;23.38;66.75;100472.91;5124738;27;45616;-62
2021/06/18 05:01:05;;;;;;;;;0.00;0.00;;;;;23.44;66.67;100467.53;5123934;27;46528;-62
2021/06/18 05:03:31;;;;;;;;;0.00;0.00;;;;;23.53;66.61;100476.16;5124379;27;45309;-63
2021/06/18 05:05:56;;;;;;;;;0.00;0.00;;;;;23.67;65.70;100484.97;5108536;27;45426;-62
2021/06/18 05:08:22;;;;;;;;;0.00;0.00;;;;;23.83;65.88;100479.19;5113621;27;45340;-62
2021/06/18 05:10:47;;;;;;;;;0.00;0.00;;;;;23.99;65.13;100471.69;5124016;27;45356;-62
2021/06/18 05:13:12;;;;;;;;;0.00;0.00;;;;;24.15;64.82;100472.00;5123958;27;45404;-62
2021/06/18 05:15:38;;;;;;;;;0.00;0.00;;;;;24.28;64.78;100475.66;5124105;27;45292;-62
2021/06/18 05:18:03;;;;;;;;;0.00;0.00;;;;;24.38;63.93;100477.84;5124507;27;45312;-63
2021/06/18 05:20:29;;;;;;;;;0.00;0.00;;;;;24.48;63.69;100480.91;5124010;27;46207;-63
2021/06/18 05:22:54;;;;;;;;;0.00;0.00;;;;;24.52;63.29;100480.28;5124219;27;45268;-63
2021/06/18 05:25:19;;;;;;;;;0.00;0.00;;;;;24.55;63.62;100479.81;5124150;27;45799;-63
2021/06/18 05:27:45;;;;;;;;;0.00;0.00;;;;;24.54;63.17;100480.06;5124283;27;45253;-62
2021/06/18 05:30:12;;;;;;;;;0.00;0.00;;;;;24.53;62.62;100476.53;5123603;27;45526;-63
2021/06/18 05:32:38;;;;;;;;;0.00;0.00;;;;;24.56;62.52;100475.31;5123377;27;45202;-63
2021/06/18 05:35:04;;;;;;;;;0.00;0.00;;;;;24.66;63.12;100477.50;5124012;27;45758;-63
2021/06/18 05:37:29;;;;;;;;;0.00;0.00;;;;;24.74;62.37;100482.59;5124545;27;45451;-64
2021/06/18 05:39:55;;;;;;;;;0.00;0.00;;;;;24.83;61.94;100486.66;5123429;27;45445;-61
2021/06/18 05:42:20;;;;;;;;;0.00;0.00;;;;;24.94;61.29;100485.91;5123784;27;45237;-62
2021/06/18 05:44:46;;;;;;;;;0.00;0.00;;;;;25.05;61.61;100489.75;5122690;27;45408;-63
2021/06/18 05:47:11;;;;;;;;;0.00;0.00;;;;;25.15;60.51;100482.03;5124055;27;45692;-62
2021/06/18 05:49:36;;;;;;;;;0.00;0.00;;;;;25.24;60.90;100487.16;5123560;27;46195;-62
2021/06/18 05:52:02;;;;;;;;;0.00;0.00;;;;;25.35;60.51;100483.72;5123373;27;45380;-63
2021/06/18 05:54:27;;;;;;;;;0.00;0.00;;;;;25.42;59.83;100487.19;5123295;27;45253;-62
2021/06/18 05:56:54;;;;;;;;;0.00;0.00;;;;;25.47;59.71;100481.13;5123693;27;45556;-62
2021/06/18 05:59:20;;;;;;;;;0.00;0.00;;;;;25.55;60.04;100472.72;5104148;27;47363;-62
2021/06/18 06:01:45;;;;;;;;;0.00;0.00;;;;;25.64;59.21;100475.94;5122909;27;45345;-63
2021/06/18 06:04:10;;;;;;;;;0.00;0.00;;;;;25.61;59.02;100474.53;5103675;27;45556;-63
2021/06/18 06:06:36;;;;;;;;;0.00;0.00;;;;;25.47;58.95;100470.38;5102722;27;45525;-63
2021/06/18 06:09:02;;;;;;;;;0.00;0.00;;;;;25.33;59.05;100475.88;5117628;27;46025;-63
2021/06/18 06:11:29;;;;;;;;;0.00;0.00;;;;;25.29;59.98;100481.91;5123132;27;45217;-65
2021/06/18 06:14:03;;;;;;;;;3.00;3.00;;;;;25.46;59.90;100495.59;5101124;27;45353;-67
2021/06/18 06:16:33;;;;;;;;;0.00;0.00;;;;;25.72;59.41;100506.06;5100835;27;45604;-63
2021/06/18 06:19:00;;;;;;;;;0.00;0.00;;;;;25.98;58.54;100490.66;5099657;27;46290;-63
2021/06/18 06:21:26;;;;;;;;;0.00;0.00;;;;;26.28;57.80;100501.44;5106235;27;45448;-62
2021/06/18 06:23:51;;;;;;;;;0.00;0.00;;;;;26.56;57.76;100500.84;5116154;27;45655;-64
2021/06/18 06:26:21;;;;;;;;;0.00;0.00;;;;;26.87;56.43;100493.53;5122063;27;45401;-63
2021/06/18 06:28:47;;;;;;;;;0.00;0.00;;;;;27.14;55.77;100485.78;5121135;27;46160;-63
2021/06/18 06:31:12;;;;;;;;;0.00;0.00;;;;;27.44;54.94;100492.16;5122351;27;45355;-63
2021/06/18 06:33:38;;;;;;;;;0.00;0.00;;;;;27.73;54.42;100476.81;5122547;27;45481;-62
2021/06/18 06:36:03;;;;;;;;;0.00;0.00;;;;;27.95;53.00;100477.84;5122146;27;45420;-63
2021/06/18 06:38:29;;;;;;;;;0.00;0.00;;;;;28.04;51.93;100493.66;5121947;27;46464;-63
2021/06/18 06:40:55;;;;;;;;;0.00;0.00;;;;;28.10;52.08;100482.72;5122206;27;45254;-64
2021/06/18 06:43:20;;;;;;;;;0.00;0.00;;;;;28.27;51.89;100473.81;5103635;27;45247;-64
2021/06/18 06:45:46;;;;;;;;;0.00;0.00;;;;;28.51;50.24;100471.84;5122241;27;45499;-63
2021/06/18 06:48:12;;;;;;;;;0.00;0.00;;;;;28.61;50.38;100486.31;5121165;27;45317;-63
2021/06/18 06:50:37;;;;;;;;;0.00;0.00;;;;;28.74;49.59;100476.28;5122343;27;45297;-64
2021/06/18 06:53:03;;;;;;;;;0.00;0.00;;;;;28.90;49.34;100475.47;5121635;27;45342;-64
2021/06/18 06:55:28;;;;;;;;;0.00;0.00;;;;;28.96;48.47;100482.56;5122779;27;45281;-63
2021/06/18 06:57:54;;;;;;;;;0.00;0.00;;;;;29.02;48.00;100491.56;5121758;27;46428;-64
2021/06/18 07:00:19;;;;;;;;;0.00;0.00;;;;;28.97;47.63;100494.22;5121684;27;45371;-63
2021/06/18 07:02:45;;;;;;;;;2.50;0.00;;;;;28.93;47.03;100485.75;5122271;27;45371;-64
2021/06/18 07:05:11;;;;;;;;;0.00;0.00;;;;;29.02;48.32;100478.84;5094704;27;45334;-63
2021/06/18 07:07:37;;;;;;;;;0.00;0.00;;;;;29.43;47.88;100489.47;5102826;27;45238;-64
2021/06/18 07:10:05;;;;;;;;;0.00;0.00;;;;;29.77;46.35;100494.81;5101528;27;45421;-63
2021/06/18 07:12:30;;;;;;;;;0.00;0.00;;;;;29.87;45.78;100491.38;5083143;27;45422;-64
2021/06/18 07:14:56;;;;;;;;;0.00;0.00;;;;;30.10;44.95;100482.97;5111155;27;45266;-63
2021/06/18 07:17:22;;;;;;;;;0.00;0.00;;;;;30.57;45.04;100492.38;5121774;27;46079;-64
2021/06/18 07:19:49;;;;;;;;;0.00;0.00;;;;;31.21;43.84;100503.19;5121912;27;45172;-62
2021/06/18 07:22:16;;;;;;;;;0.00;0.00;;;;;31.89;42.62;100505.16;5121595;27;45268;-63
2021/06/18 07:24:42;;;;;;;;;0.00;0.00;;;;;32.37;41.45;100496.84;5122607;27;45292;-63
2021/06/18 07:27:07;;;;;;;;;0.75;0.00;;;;;32.46;38.77;100519.69;5102623;27;47062;-63
2021/06/18 07:29:33;;;;;;;;;0.00;0.00;;;;;32.46;39.10;100515.09;5121487;27;45373;-64
2021/06/18 07:31:58;;;;;;;;;0.00;0.00;;;;;32.35;38.68;100510.69;5121448;27;45376;-63
2021/06/18 07:34:23;;;;;;;;;0.00;0.00;;;;;31.80;40.36;100523.03;5121582;27;45488;-63
2021/06/18 07:36:49;;;;;;;;;2.00;0.00;;;;;31.33;40.54;100521.97;5121371;27;46481;-63
2021/06/18 07:39:15;;;;;;;;;0.00;0.00;;;;;31.05;41.47;100515.00;5121665;27;45355;-64
2021/06/18 07:41:40;;;;;;;;;0.00;0.00;;;;;31.22;41.15;100517.56;5121762;27;45468;-64
2021/06/18 07:44:06;;;;;;;;;0.00;0.00;;;;;31.66;39.87;100519.97;5099650;27;45310;-63
2021/06/18 07:46:31;;;;;;;;;0.00;0.00;;;;;31.65;40.22;100523.78;5117176;27;45486;-63
2021/06/18 07:48:57;;;;;;;;;0.00;0.00;;;;;31.84;39.81;100524.97;5121917;27;45239;-64
2021/06/18 07:51:22;;;;;;;;;0.00;0.00;;;;;31.89;40.34;100516.81;5121651;27;45535;-64
2021/06/18 07:53:48;;;;;;;;;0.00;0.00;;;;;32.18;39.33;100521.84;5121723;27;45341;-65
2021/06/18 07:56:22;;;;;;;;;0.00;0.00;;;;;32.72;38.60;100504.22;5102397;27;47091;-65
2021/06/18 07:58:47;;;;;;;;;0.00;0.00;;;;;32.87;37.24;100514.28;5121064;27;45472;-64
2021/06/18 08:01:13;;;;;;;;;0.00;0.00;;;;;32.39;36.29;100522.66;5120712;27;45466;-64
2021/06/18 08:03:38;;;;;;;;;0.00;0.00;;;;;31.81;37.56;100517.31;5103153;27;45387;-64
2021/06/18 08:06:04;;;;;;;;;0.00;0.00;;;;;31.52;39.04;100519.66;5103098;27;49938;-63
2021/06/18 08:08:29;;;;;;;;;1.00;0.00;;;;;31.36;39.35;100512.47;5100343;27;45413;-63
2021/06/18 08:10:54;;;;;;;;;0.00;0.00;;;;;31.35;39.11;100524.44;5117479;27;45306;-64
2021/06/18 08:13:20;;;;;;;;;2.00;2.00;;;;;31.28;38.84;100527.38;5111218;27;45271;-64
2021/06/18 08:15:45;;;;;;;;;0.00;0.00;;;;;30.92;38.78;100516.28;5117230;27;46159;-64
2021/06/18 08:18:10;;;;;;;;;0.00;0.00;;;;;31.09;39.14;100523.47;5120957;27;45362;-64
2021/06/18 08:20:36;;;;;;;;;0.00;0.00;;;;;31.12;39.30;100514.78;5120796;27;45374;-64
2021/06/18 08:23:01;;;;;;;;;0.00;0.00;;;;;31.68;37.72;100520.53;5121315;27;45282;-64
2021/06/18 08:25:26;;;;;;;;;0.00;0.00;;;;;32.27;37.98;100503.09;5120789;27;46243;-63
2021/06/18 08:27:52;;;;;;;;;0.00;0.00;;;;;32.45;36.71;100496.31;5120795;27;45303;-63
2021/06/18 08:30:19;;;;;;;;;0.00;0.00;;;;;32.29;37.88;100498.22;5121659;27;45308;-64
2021/06/18 08:32:44;;;;;;;;;3.00;0.50;;;;;32.48;36.78;100504.75;5124615;27;45340;-63
2021/06/18 08:35:10;;;;;;;;;0.00;0.00;;;;;32.83;35.45;100494.16;5124352;27;46033;-63
2021/06/18 08:37:35;;;;;;;;;0.00;0.00;;;;;32.98;35.46;100504.19;5124678;27;45271;-64
2021/06/18 08:40:01;;;;;;;;;0.00;0.00;;;;;33.13;35.46;100498.75;5124309;27;45372;-63
2021/06/18 08:42:28;;;;;;;;;0.00;0.00;;;;;33.08;34.91;100493.34;5124757;27;45570;-64
2021/06/18 08:44:54;;;;;;;;;0.00;0.00;;;;;33.03;34.77;100488.69;5105462;27;47052;-63
2021/06/18 08:47:19;;;;;;;;;0.00;0.00;;;;;33.16;35.39;100489.25;5105271;27;45196;-63
2021/06/18 08:49:45;;;;;;;;;0.00;0.00;;;;;33.30;34.81;100490.28;5124322;27;45314;-63
2021/06/18 08:52:10;;;;;;;;;0.00;0.00;;;;;33.63;34.50;100493.44;5124361;27;45257;-64
2021/06/18 08:54:43;;;;;;;;;0.00;0.00;;;;;33.83;33.82;100498.00;5123889;27;46234;-63
2021/06/18 08:57:17;;;;;;;;;0.00;0.00;;;;;33.98;33.42;100483.47;5124111;27;45264;-65
2021/06/18 08:59:43;;;;;;;;;2.50;2.50;;;;;34.18;32.39;100494.25;5123855;27;45277;-64
2021/06/18 09:02:10;;;;;;;;;0.00;0.00;;;;;34.39;32.80;100496.84;5124413;27;45613;-64
2021/06/18 09:05:12;;;;;;;;;0.00;0.00;;;;;34.81;32.01;100493.50;5119678;27;46336;-63
2021/06/18 09:07:48;;;;;;;;;0.00;0.00;;;;;35.54;31.01;100502.56;5103290;27;45432;-63
2021/06/18 09:10:35;;;;;;;;;0.00;0.00;;;;;36.50;30.00;100502.34;5103388;27;45390;-63
2021/06/18 09:13:22;;;;;;;;;0.00;0.00;;;;;37.85;28.85;100496.81;5122874;27;45524;-63
2021/06/18 09:15:53;;;;;;;;;0.00;0.00;;;;;39.34;26.73;100506.84;5123455;27;45386;-64
2021/06/18 09:18:39;;;;;;;;;0.00;0.00;;;;;41.10;25.91;100499.03;5123913;27;45259;-64
2021/06/18 09:21:05;;;;;;;;;0.00;0.00;;;;;42.38;23.52;100493.31;5103224;27;45261;-64
2021/06/18 09:23:34;;;;;;;;;0.00;0.00;;;;;42.87;22.35;100500.94;5103531;27;45250;-64
2021/06/18 09:26:20;;;;;;;;;0.00;0.00;;;;;43.15;22.03;100501.06;5102891;27;45368;-63
2021/06/18 09:29:04;;;;;;;;;0.00;0.00;;;;;43.10;21.63;100504.06;5119764;27;45317;-63
2021/06/18 09:31:33;;;;;;;;;0.00;0.00;;;;;41.98;22.86;100500.13;5123077;27;45445;-64
2021/06/18 09:33:59;;;;;;;;;0.00;0.00;;;;;41.73;23.22;100501.13;5123353;27;45653;-64
2021/06/18 09:36:25;;;;;;;;;0.00;0.00;;;;;41.40;23.60;100499.06;5123294;27;46949;-64
2021/06/18 09:38:56;;;;;;;;;2.25;2.25;;;;;41.07;23.70;100498.91;5122892;27;45266;-64
2021/06/18 09:41:30;;;;;;;;;0.00;0.00;;;;;40.56;23.76;100502.28;5122726;27;45312;-64
2021/06/18 09:44:00;;;;;;;;;0.00;0.00;;;;;40.08;24.20;100505.22;5123301;27;45510;-64
2021/06/18 09:46:54;;;;;;;;;0.00;0.00;;;;;39.76;24.19;100510.84;5122610;27;46278;-64
2021/06/18 09:49:32;;;;;;;;;0.00;0.00;;;;;38.88;25.01;100513.56;5123035;27;45299;-64
2021/06/18 09:52:12;;;;;;;;;0.00;0.00;;;;;38.54;25.63;100510.31;5104931;27;45378;-64
2021/06/18 09:54:49;;;;;;;;;0.00;0.00;;;;;37.96;25.87;100517.38;5122987;27;45364;-63
2021/06/18 09:57:38;;;;;;;;;0.00;0.00;;;;;38.23;26.24;100504.75;5122846;27;47133;-64
2021/06/18 10:00:06;;;;;;;;;0.00;0.00;;;;;39.95;25.13;100513.28;5123155;27;45361;-64
2021/06/18 10:02:49;;;;;;;;;0.00;0.00;;;;;40.98;23.08;100521.78;5122820;27;45314;-64
2021/06/18 10:05:22;;;;;;;;;0.00;0.00;;;;;42.38;21.85;100518.97;5102134;27;45566;-64
2021/06/18 10:07:50;;;;;;;;;0.25;0.00;;;;;44.40;19.13;100524.22;5101599;27;45374;-64
2021/06/18 10:10:19;;;;;;;;;0.00;0.00;;;;;46.03;18.15;100525.03;5083359;27;45639;-64
2021/06/18 10:12:45;;;;;;;;;1.00;0.00;;;;;47.22;15.82;100527.19;5101521;27;45343;-63
2021/06/18 10:15:16;;;;;;;;;0.00;0.00;;;;;44.63;17.50;100543.06;5103953;27;45853;-63
2021/06/18 10:17:43;;;;;;;;;0.00;0.00;;;;;41.58;20.11;100528.19;5108299;27;46441;-63
2021/06/18 10:20:14;;;;;;;;;0.00;0.00;;;;;39.48;22.40;100523.22;5122463;27;45276;-63
2021/06/18 10:22:45;;;;;;;;;0.00;0.00;;;;;40.17;22.15;100531.56;5103452;27;45356;-63
2021/06/18 10:25:14;;;;;;;;;0.00;0.00;;;;;39.81;21.03;100531.88;5122326;27;45392;-63
2021/06/18 10:27:49;;;;;;;;;0.00;0.00;;;;;40.51;21.24;100537.41;5121870;27;47019;-64
2021/06/18 10:30:24;;;;;;;;;0.00;0.00;;;;;41.18;20.36;100533.22;5103030;27;45368;-63
2021/06/18 10:32:50;;;;;;;;;0.00;0.00;;;;;41.32;20.98;100538.50;5122346;27;45544;-65
2021/06/18 10:35:40;;;;;;;;;0.00;0.00;;;;;39.86;21.08;100530.94;5122041;27;45424;-63
2021/06/18 10:38:34;;;;;;;;;0.00;0.00;;;;;39.34;22.38;100517.81;5121651;27;46762;-63
2021/06/18 10:41:13;;;;;;;;;0.00;0.00;;;;;39.03;22.81;100526.09;5118200;27;45454;-64
2021/06/18 10:43:47;;;;;;;;;0.00;0.00;;;;;39.14;22.98;100531.00;5121687;27;45458;-62
2021/06/18 10:46:16;;;;;;;;;0.00;0.00;;;;;38.88;22.32;100538.25;5121548;27;45390;-63
2021/06/18 10:48:45;;;;;;;;;0.00;0.00;;;;;38.76;23.18;100542.41;5121697;27;46281;-64
2021/06/18 10:51:38;;;;;;;;;0.00;0.00;;;;;38.77;23.29;100545.94;5122617;27;45327;-64
2021/06/18 10:54:47;;;;;;;;;0.25;0.00;;;;;39.07;22.62;100535.31;5110291;27;45289;-63
2021/06/18 10:57:13;;;;;;;;;0.00;0.00;;;;;40.41;21.77;100540.50;5073133;27;45395;-63
2021/06/18 10:59:52;;;;;;;;;0.00;0.00;;;;;39.86;21.55;100537.22;5121133;27;47448;-64
2021/06/18 11:02:20;;;;;;;;;0.00;0.00;;;;;38.23;23.09;100554.09;5121759;27;45258;-62
2021/06/18 11:04:48;;;;;;;;;0.00;0.00;;;;;39.85;22.20;100548.53;5116609;27;45495;-63
2021/06/18 11:07:25;;;;;;;;;0.00;0.00;;;;;41.86;20.38;100557.19;5101674;27;45315;-67
2021/06/18 11:09:53;;;;;;;;;0.00;0.00;;;;;43.37;18.68;100539.34;5101011;27;46998;-64
2021/06/18 11:12:24;;;;;;;;;0.00;0.00;;;;;44.52;17.17;100551.06;5114488;27;45263;-64
2021/06/18 11:14:54;;;;;;;;;0.00;0.00;;;;;46.03;15.99;100544.47;5113263;27;45459;-65
2021/06/18 11:17:43;;;;;;;;;0.00;0.00;;;;;46.90;15.26;100543.34;5116235;27;45159;-64
2021/06/18 11:20:18;;;;;;;;;0.25;0.00;;;;;44.50;16.78;100552.59;5121564;27;45509;-62
2021/06/18 11:22:55;;;;;;;;;0.00;0.00;;;;;42.80;18.21;100556.72;5121235;27;45334;-62
2021/06/18 11:25:36;;;;;;;;;1.00;0.00;;;;;44.93;16.73;100570.34;5102702;27;45345;-62
2021/06/18 11:28:26;;;;;;;;;1.00;0.00;;;;;46.34;15.64;100559.34;5121510;27;45254;-61
2021/06/18 11:30:56;;;;;;;;;0.00;0.00;;;;;46.13;15.43;100572.78;5121521;27;45731;-64
2021/06/18 11:33:36;;;;;;;;;0.00;0.00;;;;;44.42;16.58;100562.63;5121566;27;45284;-62